LTCM Airport Information

Runway Information
Airport Frequencies
Airport Navaids
Type VOR-DME Name Sinop Frequency 114000 KHZ
Type NDB Name Sinop Frequency 465 KHZ
Airport Weather Information & NOTAM
ADDS - METARS form results

(1013 UTC 22 February 2020)
Data provider http://aviationweather.gov/metar/data/
 
Forecast for: LTCM (SINOP AIRPORT , TR)
Text: TAF LTCM 220740Z 2209/2218 29009KT 6000 -RA SCT008 BKN028 OVC080
Forecast period: 0900 to 1800 UTC 22 February 2020
Forecast type: FROM: standard forecast or significant change
Winds: from the WNW (290 degrees) at 10 MPH (9 knots; 4.6 m/s)
Visibility: 4 miles (6 km)
Ceiling: 2800 feet AGL
Clouds: scattered clouds at 800 feet AGL
broken clouds at 2800 feet AGL
overcast cloud deck at 8000 feet AGL
Weather: -RA  (light rain)